Time;durP1;ratioP1;P1;durP2;ratioP2;P2;SDS_P1;SDS_P2;PMS_P1;PMS_P2;Temp;Humidity;BMP_temperature;BMP_pressure;BME280_temperature;BME280_humidity;BME280_pressure;Samples;Min_cycle;Max_cycle;Signal;HPM_P1;HPM_P2
2022/04/09 06:00:34;;;;;;;9.77;1.95;;;;;;;;;;5924980;23;21031;-87
2022/04/09 06:03:02;;;;;;;11.10;2.35;;;;;;;;;;4992040;28;20109;-89
2022/04/09 06:05:29;;;;;;;11.95;2.85;;;;;;;;;;4974430;28;20056;-88
2022/04/09 06:07:56;;;;;;;7.38;1.65;;;;;;;;;;4991160;28;20062;-89
2022/04/09 06:10:23;;;;;;;11.93;2.13;;;;;;;;;;4992095;28;20048;-89
2022/04/09 06:12:49;;;;;;;14.43;2.20;;;;;;;;;;4971342;28;20050;-89
2022/04/09 06:15:16;;;;;;;9.40;2.00;;;;;;;;;;4973220;28;20061;-89
2022/04/09 06:17:43;;;;;;;4.65;1.67;;;;;;;;;;4986750;28;20069;-90
2022/04/09 06:20:10;;;;;;;10.30;1.95;;;;;;;;;;4978012;28;20545;-89
2022/04/09 06:22:37;;;;;;;8.73;2.00;;;;;;;;;;4967108;28;20471;-89
2022/04/09 06:25:05;;;;;;;10.45;2.05;;;;;;;;;;4988849;28;20093;-89
2022/04/09 06:27:35;;;;;;;11.93;1.42;;;;;;;;;;4990906;28;20046;-87
2022/04/09 06:30:04;;;;;;;10.90;1.40;;;;;;;;;;4970430;28;20058;-89
2022/04/09 06:32:30;;;;;;;;;;;;;;;;;;4992537;28;20506;-89
2022/04/09 06:34:57;;;;;;;10.35;1.50;;;;;;;;;;4991863;28;19984;-88
2022/04/09 06:37:24;;;;;;;5.30;1.23;;;;;;;;;;4991896;28;20137;-89
2022/04/09 06:39:51;;;;;;;12.38;1.58;;;;;;;;;;4995083;28;20531;-88
2022/04/09 06:42:17;;;;;;;5.93;1.35;;;;;;;;;;4974897;28;20066;-88
2022/04/09 06:44:44;;;;;;;6.82;1.42;;;;;;;;;;4992716;28;20042;-89
2022/04/09 06:47:10;;;;;;;10.07;1.20;;;;;;;;;;4991482;28;20074;-88
2022/04/09 06:49:38;;;;;;;9.30;1.40;;;;;;;;;;4982569;28;20083;-89
2022/04/09 06:52:05;;;;;;;11.00;1.98;;;;;;;;;;4973080;28;20093;-86
2022/04/09 06:54:32;;;;;;;8.18;1.38;;;;;;;;;;4979033;28;20078;-86
2022/04/09 06:56:59;;;;;;;6.72;1.20;;;;;;;;;;4992039;28;20515;-88
2022/04/09 06:59:26;;;;;;;7.03;1.50;;;;;;;;;;4991105;28;20046;-88
2022/04/09 07:01:53;;;;;;;11.05;1.40;;;;;;;;;;4972355;28;20498;-88
2022/04/09 07:04:20;;;;;;;8.52;1.45;;;;;;;;;;4990810;28;20474;-88
2022/04/09 07:06:47;;;;;;;5.63;1.45;;;;;;;;;;4974608;28;20097;-88
2022/04/09 07:09:14;;;;;;;8.90;1.20;;;;;;;;;;4991758;28;20065;-89
2022/04/09 07:11:40;;;;;;;12.57;1.55;;;;;;;;;;4991945;28;20038;-88
2022/04/09 07:14:07;;;;;;;7.95;1.33;;;;;;;;;;4991425;28;20133;-88
2022/04/09 07:16:33;;;;;;;6.82;1.10;;;;;;;;;;4985779;28;20070;-89
2022/04/09 07:19:01;;;;;;;9.25;1.35;;;;;;;;;;4968663;28;20051;-88
2022/04/09 07:21:28;;;;;;;7.55;1.40;;;;;;;;;;4994367;28;20062;-88
2022/04/09 07:23:54;;;;;;;8.85;1.55;;;;;;;;;;4988200;28;20058;-85
2022/04/09 07:26:21;;;;;;;7.25;1.17;;;;;;;;;;4992863;28;20418;-85
2022/04/09 07:28:48;;;;;;;6.25;1.48;;;;;;;;;;4989881;28;20077;-86
2022/04/09 07:31:14;;;;;;;6.70;1.48;;;;;;;;;;4974468;28;20129;-86
2022/04/09 07:33:41;;;;;;;6.70;1.70;;;;;;;;;;4989928;28;20535;-86
2022/04/09 07:36:07;;;;;;;10.27;2.40;;;;;;;;;;4969904;28;20069;-86
2022/04/09 07:38:34;;;;;;;6.32;1.25;;;;;;;;;;4974627;28;20077;-86
2022/04/09 07:41:01;;;;;;;6.28;1.70;;;;;;;;;;4988327;28;20086;-86
2022/04/09 07:43:29;;;;;;;7.18;1.08;;;;;;;;;;4990481;28;20109;-85
2022/04/09 07:45:56;;;;;;;5.45;1.10;;;;;;;;;;4990283;28;20101;-85
2022/04/09 07:48:24;;;;;;;9.82;1.30;;;;;;;;;;4983781;28;20121;-87
2022/04/09 07:50:51;;;;;;;6.28;1.00;;;;;;;;;;4982825;28;20111;-86
2022/04/09 07:53:18;;;;;;;8.02;1.38;;;;;;;;;;4987198;28;20173;-87
2022/04/09 07:55:45;;;;;;;4.25;1.30;;;;;;;;;;4990047;28;20157;-87
2022/04/09 07:58:14;;;;;;;4.40;1.00;;;;;;;;;;4988828;28;20038;-88
2022/04/09 08:00:41;;;;;;;10.32;1.35;;;;;;;;;;4988898;28;20225;-87
2022/04/09 08:03:08;;;;;;;6.70;1.33;;;;;;;;;;4989858;28;20109;-88
2022/04/09 08:05:35;;;;;;;7.78;1.55;;;;;;;;;;4971081;28;20054;-86
2022/04/09 08:08:03;;;;;;;6.07;1.10;;;;;;;;;;4985897;28;20085;-86
2022/04/09 08:10:30;;;;;;;6.60;1.02;;;;;;;;;;4987192;28;20077;-87
2022/04/09 08:12:57;;;;;;;8.23;1.55;;;;;;;;;;4985734;28;20075;-86
2022/04/09 08:15:24;;;;;;;4.45;1.08;;;;;;;;;;4970374;28;20058;-85
2022/04/09 08:17:54;;;;;;;4.65;1.00;;;;;;;;;;4987784;28;20542;-84
2022/04/09 08:20:40;;;;;;;7.20;1.98;;;;;;;;;;4985466;28;20043;-85
2022/04/09 08:23:06;;;;;;;6.07;1.20;;;;;;;;;;4978905;28;20162;-86
2022/04/09 08:25:33;;;;;;;4.50;1.05;;;;;;;;;;4987384;28;20515;-86
2022/04/09 08:28:00;;;;;;;6.30;1.20;;;;;;;;;;4967129;28;20083;-85
2022/04/09 08:30:26;;;;;;;6.00;1.02;;;;;;;;;;4986788;28;20106;-86
2022/04/09 08:32:54;;;;;;;4.10;0.95;;;;;;;;;;4985830;28;20073;-85
2022/04/09 08:35:20;;;;;;;5.55;1.00;;;;;;;;;;4986041;28;20597;-86
2022/04/09 08:37:54;;;;;;;4.90;1.10;;;;;;;;;;4983861;28;20081;-85
2022/04/09 08:40:22;;;;;;;7.00;1.10;;;;;;;;;;4986346;28;20793;-85
2022/04/09 08:42:49;;;;;;;7.57;1.20;;;;;;;;;;4987470;28;20156;-85
2022/04/09 08:45:17;;;;;;;6.85;1.00;;;;;;;;;;4960119;28;20188;-84
2022/04/09 08:47:44;;;;;;;4.10;0.80;;;;;;;;;;4979511;28;20529;-87
2022/04/09 08:50:13;;;;;;;6.95;1.27;;;;;;;;;;4984682;28;20101;-87
2022/04/09 08:52:44;;;;;;;6.45;1.05;;;;;;;;;;4984783;28;20188;-88
2022/04/09 08:55:13;;;;;;;8.18;1.02;;;;;;;;;;4982857;28;22118;-86
2022/04/09 08:57:41;;;;;;;5.30;1.08;;;;;;;;;;4985893;28;20057;-87
2022/04/09 09:00:13;;;;;;;5.60;0.95;;;;;;;;;;4987636;28;20050;-87
2022/04/09 09:02:51;;;;;;;5.25;0.95;;;;;;;;;;4984124;28;20117;-86
2022/04/09 09:05:52;;;;;;;8.05;1.10;;;;;;;;;;4983559;28;20133;-85
2022/04/09 09:08:40;;;;;;;6.18;1.30;;;;;;;;;;4971747;28;20525;-85
2022/04/09 09:11:07;;;;;;;6.15;1.25;;;;;;;;;;4980604;28;21057;-86
2022/04/09 09:13:54;;;;;;;7.20;1.60;;;;;;;;;;4973684;28;20070;-86
2022/04/09 09:16:29;;;;;;;5.32;0.93;;;;;;;;;;4984007;28;20050;-86
2022/04/09 09:18:57;;;;;;;3.53;0.85;;;;;;;;;;4985689;28;20062;-86
2022/04/09 09:21:27;;;;;;;6.82;1.00;;;;;;;;;;4984801;28;20657;-86
2022/04/09 09:24:09;;;;;;;6.28;0.82;;;;;;;;;;4985278;28;20069;-88
2022/04/09 09:26:38;;;;;;;5.47;1.10;;;;;;;;;;4972414;28;20236;-86
2022/04/09 09:29:08;;;;;;;7.75;1.10;;;;;;;;;;4984268;28;20050;-87
2022/04/09 09:31:40;;;;;;;7.05;1.00;;;;;;;;;;4970671;28;20054;-88
2022/04/09 09:34:12;;;;;;;5.30;1.55;;;;;;;;;;4970742;28;20109;-87
2022/04/09 09:36:42;;;;;;;2.53;0.80;;;;;;;;;;4960765;28;20129;-87
2022/04/09 09:39:19;;;;;;;2.65;0.70;;;;;;;;;;4985191;28;20145;-89
2022/04/09 09:41:48;;;;;;;4.70;1.00;;;;;;;;;;4971049;28;20058;-88
2022/04/09 09:44:18;;;;;;;9.80;1.35;;;;;;;;;;4976175;28;20064;-88
2022/04/09 09:46:49;;;;;;;5.57;1.05;;;;;;;;;;4984377;28;20077;-87
2022/04/09 09:49:17;;;;;;;6.40;1.23;;;;;;;;;;4969488;28;20068;-88
2022/04/09 09:52:00;;;;;;;4.03;1.30;;;;;;;;;;4969742;28;20187;-89
2022/04/09 09:54:27;;;;;;;6.93;1.05;;;;;;;;;;4984841;28;20317;-89
2022/04/09 09:56:55;;;;;;;3.55;1.00;;;;;;;;;;4984865;28;20057;-89
2022/04/09 09:59:23;;;;;;;4.13;0.90;;;;;;;;;;4983087;28;20451;-86
2022/04/09 10:01:51;;;;;;;5.50;1.25;;;;;;;;;;4983419;28;20078;-86
2022/04/09 10:04:19;;;;;;;4.68;1.42;;;;;;;;;;4977389;28;20050;-86
2022/04/09 10:06:46;;;;;;;7.22;1.00;;;;;;;;;;4980770;28;20050;-87
2022/04/09 10:09:18;;;;;;;6.07;1.38;;;;;;;;;;4979294;28;20077;-86
2022/04/09 10:11:54;;;;;;;8.15;1.50;;;;;;;;;;4984032;28;20086;-86
2022/04/09 10:14:22;;;;;;;5.88;1.20;;;;;;;;;;4984388;28;20054;-87
2022/04/09 10:16:53;;;;;;;3.35;0.90;;;;;;;;;;4960604;28;20054;-88
2022/04/09 10:19:22;;;;;;;6.20;1.38;;;;;;;;;;4984088;28;20143;-89
2022/04/09 10:21:51;;;;;;;5.70;0.95;;;;;;;;;;4968170;28;20055;-87
2022/04/09 10:24:23;;;;;;;4.03;0.70;;;;;;;;;;4984343;28;20053;-87
2022/04/09 10:26:49;;;;;;;4.47;1.13;;;;;;;;;;4984542;28;20057;-89
2022/04/09 10:29:16;;;;;;;3.05;1.02;;;;;;;;;;4964648;28;20069;-83
2022/04/09 10:31:51;;;;;;;3.97;1.10;;;;;;;;;;4979630;28;20469;-83
2022/04/09 10:34:18;;;;;;;4.20;0.80;;;;;;;;;;4980311;28;20042;-84
2022/04/09 10:36:45;;;;;;;5.07;0.90;;;;;;;;;;4979513;28;20522;-81
2022/04/09 10:39:45;;;;;;;5.35;1.50;;;;;;;;;;4983130;28;20097;-83
2022/04/09 10:42:47;;;;;;;4.15;0.90;;;;;;;;;;4983137;28;20046;-83
2022/04/09 10:45:14;;;;;;;2.95;0.93;;;;;;;;;;4979031;28;20074;-84
2022/04/09 10:48:10;;;;;;;5.57;1.10;;;;;;;;;;4979961;28;20050;-83
2022/04/09 10:51:08;;;;;;;6.45;1.17;;;;;;;;;;4982183;28;20065;-82
2022/04/09 10:53:39;;;;;;;2.17;0.80;;;;;;;;;;4985714;28;20050;-81
2022/04/09 10:56:26;;;;;;;3.08;0.70;;;;;;;;;;4984308;28;20133;-81
2022/04/09 10:59:29;;;;;;;3.78;1.15;;;;;;;;;;4984405;28;20046;-81
2022/04/09 11:01:55;;;;;;;3.10;0.73;;;;;;;;;;4984409;28;20117;-81
2022/04/09 11:04:32;;;;;;;4.65;0.93;;;;;;;;;;4984127;28;20066;-82
2022/04/09 11:07:19;;;;;;;5.55;0.90;;;;;;;;;;4985690;28;20077;-80
2022/04/09 11:09:47;;;;;;;5.97;1.30;;;;;;;;;;4968269;28;20097;-81
2022/04/09 11:12:19;;;;;;;7.00;1.00;;;;;;;;;;4988633;28;20046;-81
2022/04/09 11:14:48;;;;;;;3.55;0.90;;;;;;;;;;4984878;28;20289;-81
2022/04/09 11:17:31;;;;;;;5.05;1.00;;;;;;;;;;4985628;28;20078;-84
2022/04/09 11:20:07;;;;;;;5.28;1.10;;;;;;;;;;4985595;28;20043;-85
2022/04/09 11:22:45;;;;;;;2.55;0.80;;;;;;;;;;4984904;28;20071;-84
2022/04/09 11:25:22;;;;;;;3.63;0.90;;;;;;;;;;4985109;28;22183;-84
2022/04/09 11:27:49;;;;;;;3.72;0.77;;;;;;;;;;4985355;28;20298;-84
2022/04/09 11:30:17;;;;;;;4.53;1.02;;;;;;;;;;4970838;28;20272;-84
2022/04/09 11:32:46;;;;;;;3.33;1.00;;;;;;;;;;4984565;28;20050;-84
2022/04/09 11:35:12;;;;;;;6.05;1.02;;;;;;;;;;4984603;28;20081;-84
2022/04/09 11:37:41;;;;;;;4.22;0.90;;;;;;;;;;4986830;28;20722;-84
2022/04/09 11:40:10;;;;;;;3.20;0.70;;;;;;;;;;4983776;28;20125;-85
2022/04/09 11:42:49;;;;;;;5.78;0.80;;;;;;;;;;4986955;28;20094;-84
2022/04/09 11:45:20;;;;;;;4.10;0.80;;;;;;;;;;4988229;28;20070;-84
2022/04/09 11:47:48;;;;;;;3.03;0.60;;;;;;;;;;4984132;28;20054;-82
2022/04/09 11:50:15;;;;;;;4.25;0.73;;;;;;;;;;4983080;28;20066;-83
2022/04/09 11:52:43;;;;;;;5.35;0.82;;;;;;;;;;4985636;28;20491;-85
2022/04/09 11:55:11;;;;;;;3.75;0.60;;;;;;;;;;4968038;28;20415;-85
2022/04/09 11:57:39;;;;;;;2.80;1.02;;;;;;;;;;4985798;28;20054;-82
2022/04/09 12:00:06;;;;;;;4.95;0.77;;;;;;;;;;4987252;28;20096;-82
2022/04/09 12:02:35;;;;;;;3.00;0.63;;;;;;;;;;4983984;28;20512;-80
2022/04/09 12:05:03;;;;;;;2.13;0.50;;;;;;;;;;4987474;28;20038;-84
2022/04/09 12:07:31;;;;;;;1.48;0.50;;;;;;;;;;4974025;28;20062;-85
2022/04/09 12:09:57;;;;;;;2.67;0.50;;;;;;;;;;4979291;28;20090;-84
2022/04/09 12:12:24;;;;;;;1.40;0.50;;;;;;;;;;4984533;28;20046;-85
2022/04/09 12:15:00;;;;;;;1.90;0.70;;;;;;;;;;4982094;28;20531;-84
2022/04/09 12:17:34;;;;;;;4.15;0.88;;;;;;;;;;4978693;28;20613;-82
2022/04/09 12:20:39;;;;;;;1.60;0.55;;;;;;;;;;4980287;28;20133;-85
2022/04/09 12:23:07;;;;;;;5.38;0.60;;;;;;;;;;4982393;28;20096;-85
2022/04/09 12:25:47;;;;;;;7.13;0.80;;;;;;;;;;4982720;28;20062;-83
2022/04/09 12:28:32;;;;;;;1.27;0.70;;;;;;;;;;4979855;28;20053;-83
2022/04/09 12:31:00;;;;;;;3.30;0.82;;;;;;;;;;4981595;28;20505;-88
2022/04/09 12:33:28;;;;;;;2.08;0.55;;;;;;;;;;4976067;28;20054;-85
2022/04/09 12:36:08;;;;;;;1.75;0.57;;;;;;;;;;4990112;28;20100;-84
2022/04/09 12:38:39;;;;;;;2.08;0.60;;;;;;;;;;4984573;28;20057;-84
2022/04/09 12:41:07;;;;;;;3.35;0.90;;;;;;;;;;4981598;28;20121;-84
2022/04/09 12:43:36;;;;;;;2.17;0.70;;;;;;;;;;4985057;28;20057;-84
2022/04/09 12:46:05;;;;;;;4.60;0.80;;;;;;;;;;4983049;28;20042;-81
2022/04/09 12:48:43;;;;;;;1.90;0.47;;;;;;;;;;4979452;28;20054;-85
2022/04/09 12:51:13;;;;;;;3.60;0.63;;;;;;;;;;4967920;28;20593;-82
2022/04/09 12:53:41;;;;;;;2.15;0.60;;;;;;;;;;4979566;28;20109;-81
2022/04/09 12:56:09;;;;;;;3.07;0.93;;;;;;;;;;4974618;28;20087;-81
2022/04/09 12:58:36;;;;;;;4.85;0.77;;;;;;;;;;4980837;28;20077;-79
2022/04/09 13:01:04;;;;;;;1.33;0.52;;;;;;;;;;4976465;28;20816;-80
2022/04/09 13:03:32;;;;;;;3.67;0.50;;;;;;;;;;4977407;28;20506;-80
2022/04/09 13:06:00;;;;;;;3.55;0.70;;;;;;;;;;4982400;28;20506;-81
2022/04/09 13:08:26;;;;;;;2.63;0.50;;;;;;;;;;4969564;28;20892;-80
2022/04/09 13:10:53;;;;;;;3.92;0.77;;;;;;;;;;4982422;28;20053;-80
2022/04/09 13:13:23;;;;;;;3.17;0.65;;;;;;;;;;4982001;28;20097;-81
2022/04/09 13:15:51;;;;;;;2.58;0.95;;;;;;;;;;4982086;28;20137;-80
2022/04/09 13:18:18;;;;;;;3.97;0.90;;;;;;;;;;4974956;28;20081;-82
2022/04/09 13:20:44;;;;;;;2.00;0.60;;;;;;;;;;4975383;28;20051;-81
2022/04/09 13:23:11;;;;;;;4.22;0.70;;;;;;;;;;4981854;28;20755;-81
2022/04/09 13:25:39;;;;;;;7.20;0.95;;;;;;;;;;4982400;28;20050;-81
2022/04/09 13:28:07;;;;;;;4.68;0.90;;;;;;;;;;4979964;28;20042;-81
2022/04/09 13:30:34;;;;;;;3.97;0.90;;;;;;;;;;4975353;28;20078;-81
2022/04/09 13:33:00;;;;;;;1.92;0.60;;;;;;;;;;4987960;28;20676;-79
2022/04/09 13:35:28;;;;;;;4.22;0.70;;;;;;;;;;4983198;28;20058;-80
2022/04/09 13:37:55;;;;;;;3.00;0.75;;;;;;;;;;4981589;28;20066;-82
2022/04/09 13:40:22;;;;;;;2.03;0.68;;;;;;;;;;4969390;28;20507;-81
2022/04/09 13:42:48;;;;;;;3.30;0.63;;;;;;;;;;4973502;28;20042;-82
2022/04/09 13:45:15;;;;;;;2.75;0.52;;;;;;;;;;4975829;28;20047;-81
2022/04/09 13:47:42;;;;;;;2.28;0.80;;;;;;;;;;4987286;28;20479;-81
2022/04/09 13:50:10;;;;;;;2.20;0.80;;;;;;;;;;4979706;28;20070;-81
2022/04/09 13:52:37;;;;;;;2.03;0.70;;;;;;;;;;4976671;28;20190;-81
2022/04/09 13:55:04;;;;;;;3.05;1.00;;;;;;;;;;4985894;28;20050;-80
2022/04/09 13:57:31;;;;;;;2.08;0.80;;;;;;;;;;4973020;28;20103;-81
2022/04/09 13:59:58;;;;;;;9.68;1.38;;;;;;;;;;4975091;28;20058;-80
2022/04/09 14:02:24;;;;;;;2.03;0.85;;;;;;;;;;4973889;28;20054;-81
2022/04/09 14:04:51;;;;;;;2.40;0.93;;;;;;;;;;4978381;28;20046;-80
2022/04/09 14:07:18;;;;;;;2.15;0.63;;;;;;;;;;4981631;28;20057;-80
2022/04/09 14:09:45;;;;;;;3.92;1.02;;;;;;;;;;4976516;28;20049;-80
2022/04/09 14:12:12;;;;;;;5.70;0.90;;;;;;;;;;4973095;28;20612;-82
2022/04/09 14:14:39;;;;;;;4.43;1.23;;;;;;;;;;4972380;28;20047;-81
2022/04/09 14:17:05;;;;;;;4.13;1.00;;;;;;;;;;4978657;28;20133;-82
2022/04/09 14:19:32;;;;;;;4.10;0.90;;;;;;;;;;4982365;28;20058;-82
2022/04/09 14:21:59;;;;;;;4.68;0.90;;;;;;;;;;4981564;28;20403;-80
2022/04/09 14:24:25;;;;;;;2.92;0.82;;;;;;;;;;4983051;28;20086;-78
2022/04/09 14:26:52;;;;;;;4.18;0.90;;;;;;;;;;4986415;28;20085;-82
2022/04/09 14:29:22;;;;;;;3.03;0.82;;;;;;;;;;4984124;28;20439;-82
2022/04/09 14:31:49;;;;;;;3.38;0.60;;;;;;;;;;4984606;28;20058;-82
2022/04/09 14:34:16;;;;;;;3.97;0.75;;;;;;;;;;4981222;28;20050;-82
2022/04/09 14:36:43;;;;;;;3.83;1.10;;;;;;;;;;4977523;28;20101;-79
2022/04/09 14:39:10;;;;;;;3.45;0.80;;;;;;;;;;4981150;28;20109;-78
2022/04/09 14:41:38;;;;;;;3.03;0.85;;;;;;;;;;4985790;28;20065;-80
2022/04/09 14:44:05;;;;;;;4.53;0.90;;;;;;;;;;4985258;28;20042;-80
2022/04/09 14:46:32;;;;;;;4.15;1.55;;;;;;;;;;4985101;28;20081;-79
2022/04/09 14:48:58;;;;;;;4.15;1.30;;;;;;;;;;4983250;28;20046;-81
2022/04/09 14:51:25;;;;;;;9.68;1.35;;;;;;;;;;4985649;28;20057;-82
2022/04/09 14:53:52;;;;;;;6.45;1.38;;;;;;;;;;4985152;28;20100;-81
2022/04/09 14:56:18;;;;;;;3.78;0.88;;;;;;;;;;4984480;28;20049;-83
2022/04/09 14:58:45;;;;;;;7.68;1.23;;;;;;;;;;4985063;28;20149;-79
2022/04/09 15:01:12;;;;;;;5.03;1.10;;;;;;;;;;4984632;28;20105;-80
2022/04/09 15:03:39;;;;;;;5.70;1.20;;;;;;;;;;4985525;28;20043;-80
2022/04/09 15:06:06;;;;;;;7.55;1.67;;;;;;;;;;4985517;28;20050;-81
2022/04/09 15:08:36;;;;;;;6.88;1.20;;;;;;;;;;4969046;28;20991;-78
2022/04/09 15:11:03;;;;;;;4.57;1.05;;;;;;;;;;4984519;28;20042;-80
2022/04/09 15:13:31;;;;;;;6.20;1.00;;;;;;;;;;4985733;28;20066;-80
2022/04/09 15:15:59;;;;;;;5.78;1.27;;;;;;;;;;4985010;28;20058;-80
2022/04/09 15:18:25;;;;;;;5.15;0.93;;;;;;;;;;4985785;28;20058;-80
2022/04/09 15:20:52;;;;;;;5.57;1.20;;;;;;;;;;4968768;28;20132;-80
2022/04/09 15:23:19;;;;;;;5.43;0.90;;;;;;;;;;4986592;28;20526;-80
2022/04/09 15:25:46;;;;;;;5.05;0.95;;;;;;;;;;4987356;28;20062;-80
2022/04/09 15:28:13;;;;;;;3.78;0.88;;;;;;;;;;4987119;28;20042;-78
2022/04/09 15:30:42;;;;;;;6.30;1.02;;;;;;;;;;4986630;28;20058;-79
2022/04/09 15:33:10;;;;;;;4.38;1.30;;;;;;;;;;4986490;28;20042;-79
2022/04/09 15:35:36;;;;;;;5.10;1.48;;;;;;;;;;4969858;28;20133;-79
2022/04/09 15:38:04;;;;;;;2.42;0.98;;;;;;;;;;4972764;28;20113;-80
2022/04/09 15:40:31;;;;;;;4.38;1.10;;;;;;;;;;4983922;28;20102;-81
2022/04/09 15:43:00;;;;;;;7.50;1.50;;;;;;;;;;4984729;28;20194;-80
2022/04/09 15:45:27;;;;;;;7.60;1.40;;;;;;;;;;4984641;28;20058;-79
2022/04/09 15:47:54;;;;;;;6.53;1.40;;;;;;;;;;4983818;28;20458;-81
2022/04/09 15:50:22;;;;;;;5.22;1.00;;;;;;;;;;4970632;28;20042;-80
2022/04/09 15:52:50;;;;;;;3.85;1.05;;;;;;;;;;4984297;28;20055;-80
2022/04/09 15:55:21;;;;;;;6.75;1.73;;;;;;;;;;4983989;28;20574;-81
2022/04/09 15:57:48;;;;;;;4.28;1.00;;;;;;;;;;4984882;28;20130;-78
2022/04/09 16:00:15;;;;;;;4.90;1.10;;;;;;;;;;4984677;28;20093;-80
2022/04/09 16:02:42;;;;;;;3.58;1.30;;;;;;;;;;4983568;28;20050;-79
2022/04/09 16:05:13;;;;;;;4.00;0.98;;;;;;;;;;4984111;28;20054;-79
2022/04/09 16:07:40;;;;;;;4.80;1.20;;;;;;;;;;4984509;28;20054;-79
2022/04/09 16:10:08;;;;;;;6.43;0.95;;;;;;;;;;4981254;28;20097;-79
2022/04/09 16:12:36;;;;;;;;;;;;;;;;;;4984976;28;20104;-80
2022/04/09 16:15:04;;;;;;;6.57;1.15;;;;;;;;;;4969515;28;20088;-79
2022/04/09 16:17:32;;;;;;;3.30;0.88;;;;;;;;;;4983156;28;20062;-79
2022/04/09 16:19:59;;;;;;;3.92;0.93;;;;;;;;;;4983811;28;20458;-78
2022/04/09 16:22:26;;;;;;;5.25;1.20;;;;;;;;;;4983792;28;20046;-79
2022/04/09 16:24:53;;;;;;;4.20;1.05;;;;;;;;;;4980049;28;20117;-79
2022/04/09 16:27:22;;;;;;;6.72;1.02;;;;;;;;;;4982007;28;20136;-78
2022/04/09 16:29:49;;;;;;;4.53;1.33;;;;;;;;;;4982807;28;20434;-81
2022/04/09 16:32:16;;;;;;;4.45;1.00;;;;;;;;;;4980124;28;20046;-80
2022/04/09 16:34:43;;;;;;;5.50;1.25;;;;;;;;;;4982937;28;20054;-81
2022/04/09 16:37:10;;;;;;;5.47;1.33;;;;;;;;;;4982052;28;20070;-81
2022/04/09 16:39:37;;;;;;;5.53;1.00;;;;;;;;;;4983957;28;20085;-81
2022/04/09 16:42:04;;;;;;;6.25;1.08;;;;;;;;;;4982956;28;20569;-79
2022/04/09 16:44:35;;;;;;;5.82;1.13;;;;;;;;;;4984809;28;20523;-80
2022/04/09 16:47:02;;;;;;;6.28;1.20;;;;;;;;;;4982245;28;20070;-80
2022/04/09 16:49:30;;;;;;;7.15;1.00;;;;;;;;;;4982322;28;20554;-80
2022/04/09 16:51:57;;;;;;;5.13;0.95;;;;;;;;;;4982936;28;20772;-79
2022/04/09 16:54:24;;;;;;;8.40;1.42;;;;;;;;;;4985412;28;20475;-81
2022/04/09 16:56:50;;;;;;;6.57;1.23;;;;;;;;;;4982781;28;20149;-81
2022/04/09 16:59:22;;;;;;;4.07;0.98;;;;;;;;;;4985593;28;20042;-81
2022/04/09 17:01:49;;;;;;;5.13;1.10;;;;;;;;;;4981899;28;20088;-81
2022/04/09 17:04:17;;;;;;;4.80;1.10;;;;;;;;;;4972054;28;20134;-80
2022/04/09 17:06:43;;;;;;;5.47;0.98;;;;;;;;;;4982641;28;20054;-80
2022/04/09 17:09:10;;;;;;;5.60;1.13;;;;;;;;;;4961897;28;20066;-79
2022/04/09 17:11:36;;;;;;;5.13;1.10;;;;;;;;;;4984172;28;20065;-80
2022/04/09 17:14:04;;;;;;;7.43;1.30;;;;;;;;;;4983537;28;20046;-79
2022/04/09 17:16:30;;;;;;;6.70;1.10;;;;;;;;;;4980405;28;20042;-79
2022/04/09 17:18:57;;;;;;;5.05;1.17;;;;;;;;;;4983125;28;20042;-79
2022/04/09 17:21:24;;;;;;;3.20;1.00;;;;;;;;;;4985781;28;21495;-79
2022/04/09 17:23:51;;;;;;;6.93;1.30;;;;;;;;;;4983325;28;20050;-78
2022/04/09 17:26:18;;;;;;;6.82;1.42;;;;;;;;;;4980576;28;20062;-81
2022/04/09 17:28:45;;;;;;;5.45;1.40;;;;;;;;;;4981748;28;20580;-79
2022/04/09 17:31:11;;;;;;;3.50;0.88;;;;;;;;;;4981739;28;20470;-80
2022/04/09 17:33:39;;;;;;;7.00;1.05;;;;;;;;;;4977164;28;20050;-80
2022/04/09 17:36:07;;;;;;;6.10;1.20;;;;;;;;;;4972333;28;20490;-80
2022/04/09 17:38:34;;;;;;;5.93;1.10;;;;;;;;;;4981112;28;20130;-82
2022/04/09 17:41:04;;;;;;;5.85;1.27;;;;;;;;;;4981853;28;20057;-81
2022/04/09 17:43:31;;;;;;;5.32;1.20;;;;;;;;;;4983231;28;20100;-82
2022/04/09 17:45:59;;;;;;;5.10;0.93;;;;;;;;;;4982641;28;20189;-82
2022/04/09 17:48:27;;;;;;;9.13;1.17;;;;;;;;;;4978366;28;20050;-80
2022/04/09 17:50:53;;;;;;;6.97;1.25;;;;;;;;;;4976520;28;20046;-81
2022/04/09 17:53:27;;;;;;;6.03;1.30;;;;;;;;;;4977148;28;20628;-82
2022/04/09 17:55:54;;;;;;;3.65;1.10;;;;;;;;;;4962359;28;20050;-81
2022/04/09 17:58:21;;;;;;;5.65;1.23;;;;;;;;;;4978176;28;20050;-80
2022/04/09 18:00:48;;;;;;;5.88;0.90;;;;;;;;;;4975757;28;20061;-81
2022/04/09 18:03:15;;;;;;;4.60;1.10;;;;;;;;;;4978805;28;20050;-82
2022/04/09 18:05:42;;;;;;;6.78;1.20;;;;;;;;;;4975811;28;20309;-81
2022/04/09 18:08:10;;;;;;;5.45;1.00;;;;;;;;;;4977782;28;20462;-82
2022/04/09 18:10:57;;;;;;;6.18;1.00;;;;;;;;;;4967993;28;20046;-81
2022/04/09 18:13:24;;;;;;;4.10;0.95;;;;;;;;;;4973605;28;20086;-82
2022/04/09 18:15:51;;;;;;;7.00;1.25;;;;;;;;;;4971682;28;20098;-80
2022/04/09 18:18:18;;;;;;;4.78;0.90;;;;;;;;;;4974362;28;20472;-81
2022/04/09 18:20:45;;;;;;;4.93;1.02;;;;;;;;;;4976712;28;20047;-81
2022/04/09 18:23:12;;;;;;;5.38;1.30;;;;;;;;;;4978380;28;20050;-82
2022/04/09 18:25:39;;;;;;;10.65;1.10;;;;;;;;;;4973180;28;20050;-81
2022/04/09 18:28:06;;;;;;;5.20;1.17;;;;;;;;;;4973191;28;20483;-81
2022/04/09 18:30:34;;;;;;;4.25;1.20;;;;;;;;;;4973237;28;20047;-82
2022/04/09 18:33:01;;;;;;;7.67;1.20;;;;;;;;;;4974890;28;20104;-82
2022/04/09 18:35:28;;;;;;;7.25;1.35;;;;;;;;;;4976558;28;20503;-82
2022/04/09 18:38:00;;;;;;;12.68;6.47;;;;;;;;;;4977223;28;20244;-82
2022/04/09 18:40:27;;;;;;;74.43;43.67;;;;;;;;;;4982060;28;20962;-81
2022/04/09 18:42:54;;;;;;;22.42;10.60;;;;;;;;;;4982100;28;20085;-81
2022/04/09 18:45:22;;;;;;;10.02;1.90;;;;;;;;;;4985194;28;20054;-81
2022/04/09 18:47:49;;;;;;;7.75;1.88;;;;;;;;;;4977874;28;20054;-80
2022/04/09 18:50:16;;;;;;;5.25;1.15;;;;;;;;;;4976895;28;20105;-80
2022/04/09 18:52:42;;;;;;;7.25;1.50;;;;;;;;;;4974876;28;20046;-79
2022/04/09 18:55:10;;;;;;;8.52;1.60;;;;;;;;;;4973637;28;20065;-80
2022/04/09 18:57:36;;;;;;;10.10;1.63;;;;;;;;;;4976292;28;20511;-80
2022/04/09 19:00:05;;;;;;;9.00;1.40;;;;;;;;;;4976939;28;20070;-79
2022/04/09 19:02:32;;;;;;;8.15;1.27;;;;;;;;;;4979983;28;20057;-80
2022/04/09 19:04:59;;;;;;;8.30;1.38;;;;;;;;;;4983430;28;20616;-80
2022/04/09 19:07:26;;;;;;;8.35;1.30;;;;;;;;;;4980859;28;20074;-80
2022/04/09 19:09:52;;;;;;;7.55;1.38;;;;;;;;;;4981145;28;20090;-80
2022/04/09 19:12:19;;;;;;;9.55;1.60;;;;;;;;;;4986934;28;20073;-81
2022/04/09 19:14:45;;;;;;;8.13;1.30;;;;;;;;;;4983964;28;20155;-79
2022/04/09 19:17:12;;;;;;;4.70;1.25;;;;;;;;;;4993362;28;20062;-79
2022/04/09 19:19:39;;;;;;;5.63;1.42;;;;;;;;;;4971903;28;20081;-80
2022/04/09 19:22:05;;;;;;;8.65;1.90;;;;;;;;;;4991204;28;20050;-80
2022/04/09 19:24:33;;;;;;;4.03;1.20;;;;;;;;;;4991655;28;20050;-79
2022/04/09 19:27:01;;;;;;;5.10;1.13;;;;;;;;;;4991919;28;20050;-79
2022/04/09 19:29:28;;;;;;;7.17;2.00;;;;;;;;;;4988959;28;20515;-80
2022/04/09 19:31:55;;;;;;;11.07;1.40;;;;;;;;;;4990545;28;20363;-79
2022/04/09 19:34:22;;;;;;;5.82;1.70;;;;;;;;;;4990131;28;20061;-80
2022/04/09 19:36:52;;;;;;;8.15;1.33;;;;;;;;;;4990684;28;20426;-79
2022/04/09 19:39:22;;;;;;;5.35;1.60;;;;;;;;;;4991049;28;20054;-78
2022/04/09 19:41:49;;;;;;;7.30;1.60;;;;;;;;;;4988242;28;20054;-80
2022/04/09 19:44:16;;;;;;;6.65;1.63;;;;;;;;;;4993800;28;20125;-79
2022/04/09 19:46:42;;;;;;;2.88;1.30;;;;;;;;;;4987132;28;20133;-81
2022/04/09 19:49:09;;;;;;;12.50;1.52;;;;;;;;;;4982306;28;20089;-80
2022/04/09 19:51:36;;;;;;;5.18;1.52;;;;;;;;;;4986391;28;20137;-79
2022/04/09 19:54:04;;;;;;;10.27;1.65;;;;;;;;;;4987551;28;20078;-79
2022/04/09 19:56:31;;;;;;;4.78;1.13;;;;;;;;;;4982842;28;20073;-80
2022/04/09 19:58:57;;;;;;;10.15;1.30;;;;;;;;;;4983571;28;20133;-81
2022/04/09 20:01:24;;;;;;;7.28;1.40;;;;;;;;;;4984800;28;20153;-80
2022/04/09 20:03:52;;;;;;;10.35;1.50;;;;;;;;;;4983825;28;20464;-80
2022/04/09 20:06:18;;;;;;;8.90;1.40;;;;;;;;;;4980107;28;20493;-79
2022/04/09 20:08:45;;;;;;;5.55;1.63;;;;;;;;;;4978510;28;20133;-79
2022/04/09 20:11:12;;;;;;;5.20;1.30;;;;;;;;;;4958832;28;20164;-79
2022/04/09 20:13:40;;;;;;;6.13;1.42;;;;;;;;;;4979794;28;20089;-80
2022/04/09 20:16:06;;;;;;;4.63;1.55;;;;;;;;;;4980275;28;20471;-78
2022/04/09 20:18:33;;;;;;;3.85;1.15;;;;;;;;;;4976847;28;20054;-79
2022/04/09 20:21:00;;;;;;;3.90;1.35;;;;;;;;;;4981366;28;20097;-79
2022/04/09 20:23:27;;;;;;;6.70;1.67;;;;;;;;;;4972722;28;20047;-79
2022/04/09 20:25:54;;;;;;;8.32;1.67;;;;;;;;;;4974887;28;20069;-80
2022/04/09 20:28:22;;;;;;;6.97;1.58;;;;;;;;;;4957026;28;20046;-81
2022/04/09 20:30:48;;;;;;;4.72;1.77;;;;;;;;;;4979747;28;20078;-80
2022/04/09 20:33:15;;;;;;;6.38;2.08;;;;;;;;;;4983678;28;20085;-80
2022/04/09 20:35:42;;;;;;;8.40;1.67;;;;;;;;;;4979451;28;20077;-81
2022/04/09 20:38:08;;;;;;;10.48;2.00;;;;;;;;;;4982987;28;20704;-80
2022/04/09 20:40:35;;;;;;;7.47;1.70;;;;;;;;;;4980327;28;20581;-79
2022/04/09 20:43:02;;;;;;;6.15;1.70;;;;;;;;;;4984525;28;20331;-79
2022/04/09 20:45:29;;;;;;;6.10;1.70;;;;;;;;;;4985990;28;20360;-79
2022/04/09 20:47:56;;;;;;;6.32;1.67;;;;;;;;;;4982932;28;20082;-79
2022/04/09 20:50:23;;;;;;;6.45;1.77;;;;;;;;;;4979344;28;20078;-78
2022/04/09 20:52:49;;;;;;;7.40;1.75;;;;;;;;;;4983638;28;20050;-80